Time;durP1;ratioP1;P1;durP2;ratioP2;P2;SDS_P1;SDS_P2;PMS_P1;PMS_P2;Temp;Humidity;BMP_temperature;BMP_pressure;BME280_temperature;BME280_humidity;BME280_pressure;Samples;Min_cycle;Max_cycle;Signal;HPM_P1;HPM_P2
2021/05/19 00:00:36;;;;;;;10.48;6.32;;;11.90;99.90;;;;;;4993779;28;20174;-80
2021/05/19 00:03:02;;;;;;;6.25;5.75;;;11.90;99.90;;;;;;4994012;28;20647;-78
2021/05/19 00:05:28;;;;;;;10.82;6.65;;;11.70;99.90;;;;;;4993795;28;20259;-78
2021/05/19 00:07:53;;;;;;;9.90;6.50;;;11.70;99.90;;;;;;4993127;28;20661;-78
2021/05/19 00:10:19;;;;;;;8.68;6.10;;;11.70;99.90;;;;;;4993952;28;20169;-78
2021/05/19 00:12:45;;;;;;;7.43;6.65;;;12.00;99.90;;;;;;4993812;28;20633;-78
2021/05/19 00:15:11;;;;;;;6.00;5.43;;;11.90;99.90;;;;;;4993415;28;20169;-78
2021/05/19 00:17:44;;;;;;;8.00;6.22;;;11.80;99.90;;;;;;4993584;28;20224;-78
2021/05/19 00:20:12;;;;;;;7.80;6.18;;;11.70;99.90;;;;;;4994655;28;20166;-78
2021/05/19 00:22:38;;;;;;;6.07;5.55;;;11.60;99.90;;;;;;4993744;28;20193;-77
2021/05/19 00:25:05;;;;;;;6.28;5.53;;;11.60;99.90;;;;;;4992911;28;20227;-78
2021/05/19 00:27:30;;;;;;;19.27;5.50;;;11.40;99.90;;;;;;4993459;28;20200;-78
2021/05/19 00:29:56;;;;;;;9.50;5.05;;;11.50;99.90;;;;;;4993524;28;20522;-78
2021/05/19 00:32:22;;;;;;;8.68;4.35;;;11.50;99.90;;;;;;4993641;28;20173;-78
2021/05/19 00:34:50;;;;;;;6.03;5.00;;;11.50;99.90;;;;;;4992164;28;20515;-78
2021/05/19 00:37:16;;;;;;;6.43;4.72;;;11.40;99.90;;;;;;4993113;28;20177;-78
2021/05/19 00:39:46;;;;;;;5.90;4.93;;;11.40;99.90;;;;;;4992839;28;20169;-78
2021/05/19 00:42:13;;;;;;;9.80;5.38;;;11.40;99.90;;;;;;4992952;28;20188;-79
2021/05/19 00:44:39;;;;;;;6.32;4.82;;;11.50;99.90;;;;;;4993045;28;20287;-78
2021/05/19 00:47:04;;;;;;;6.47;5.65;;;11.50;99.90;;;;;;4993387;28;20205;-79
2021/05/19 00:49:30;;;;;;;8.95;5.68;;;11.50;99.90;;;;;;4993148;28;20252;-78
2021/05/19 00:51:56;;;;;;;6.13;5.28;;;11.50;99.90;;;;;;4992866;28;20532;-79
2021/05/19 00:54:22;;;;;;;10.05;5.40;;;11.40;99.90;;;;;;4992749;28;20169;-78
2021/05/19 00:56:48;;;;;;;5.28;4.75;;;11.40;99.90;;;;;;4992781;28;20173;-78
2021/05/19 00:59:14;;;;;;;12.82;6.50;;;11.60;99.90;;;;;;4992787;28;20193;-79
2021/05/19 01:01:40;;;;;;;6.18;5.22;;;11.60;99.90;;;;;;4992754;28;20220;-78
2021/05/19 01:04:06;;;;;;;7.63;5.32;;;11.60;99.90;;;;;;4992630;28;20220;-78
2021/05/19 01:11:49;;;;;;;9.23;4.95;;;11.30;99.90;;;;;;4993145;28;20204;-80
2021/05/19 01:14:15;;;;;;;10.07;4.63;;;11.10;99.90;;;;;;4991619;28;20185;-78
2021/05/19 01:16:41;;;;;;;14.68;4.03;;;11.10;99.90;;;;;;4993070;28;20170;-80
2021/05/19 01:19:07;;;;;;;5.15;4.22;;;11.10;99.90;;;;;;4993266;28;20197;-78
2021/05/19 01:21:34;;;;;;;4.88;3.92;;;11.00;99.90;;;;;;4991793;28;20173;-79
2021/05/19 01:24:01;;;;;;;10.50;4.50;;;10.90;99.90;;;;;;4991478;28;20179;-78
2021/05/19 01:26:26;;;;;;;9.85;3.67;;;11.00;99.90;;;;;;4992670;28;20204;-79
2021/05/19 01:28:52;;;;;;;10.50;3.78;;;11.00;99.90;;;;;;4992534;28;20593;-79
2021/05/19 01:31:18;;;;;;;8.32;3.53;;;10.90;99.90;;;;;;4992754;28;20177;-77
2021/05/19 01:33:48;;;;;;;3.35;3.08;;;11.00;99.90;;;;;;4991258;28;20534;-78
2021/05/19 01:36:14;;;;;;;5.22;3.45;;;11.10;99.90;;;;;;4991539;28;20165;-79
2021/05/19 01:38:40;;;;;;;12.75;4.18;;;10.90;99.90;;;;;;4992489;28;20672;-78
2021/05/19 01:41:05;;;;;;;10.60;3.30;;;10.80;99.90;;;;;;4992691;28;20167;-78
2021/05/19 01:43:36;;;;;;;9.27;3.15;;;10.80;99.90;;;;;;4994410;28;20204;-78
2021/05/19 01:46:02;;;;;;;5.70;2.75;;;10.90;99.90;;;;;;4996158;28;20672;-80
2021/05/19 01:48:30;;;;;;;4.32;3.15;;;10.50;99.90;;;;;;4996032;28;20197;-77
2021/05/19 01:50:57;;;;;;;10.48;3.08;;;10.50;99.90;;;;;;4996623;28;20251;-80
2021/05/19 01:53:24;;;;;;;7.90;3.45;;;10.60;99.90;;;;;;4995250;28;20546;-78
2021/05/19 01:55:50;;;;;;;4.55;3.22;;;10.50;99.90;;;;;;4996079;28;20204;-78
2021/05/19 01:58:16;;;;;;;7.40;3.38;;;10.50;99.90;;;;;;4997418;28;20248;-78
2021/05/19 02:00:41;;;;;;;16.40;3.78;;;10.50;99.90;;;;;;4997981;28;20257;-82
2021/05/19 02:03:07;;;;;;;3.90;2.58;;;10.40;99.90;;;;;;4997533;28;20177;-78
2021/05/19 02:05:35;;;;;;;6.20;2.53;;;10.40;99.90;;;;;;4996689;28;20209;-82
2021/05/19 02:08:03;;;;;;;11.15;2.88;;;10.40;99.90;;;;;;4996879;28;20185;-79
2021/05/19 02:10:29;;;;;;;5.30;2.30;;;10.50;99.90;;;;;;4996875;28;20188;-79
2021/05/19 02:13:02;;;;;;;8.38;2.55;;;10.40;99.90;;;;;;4997157;28;20606;-78
2021/05/19 02:15:27;;;;;;;5.53;2.58;;;10.30;99.90;;;;;;4998878;28;20769;-78
2021/05/19 02:17:53;;;;;;;12.35;4.05;;;10.20;99.90;;;;;;5001250;28;20186;-78
2021/05/19 02:20:21;;;;;;;9.55;3.35;;;10.20;99.90;;;;;;4996537;28;20529;-77
2021/05/19 02:22:48;;;;;;;10.85;2.28;;;10.10;99.90;;;;;;5000356;28;20162;-78
2021/05/19 02:25:14;;;;;;;3.28;2.53;;;10.10;99.90;;;;;;5007105;28;20220;-78
2021/05/19 02:27:40;;;;;;;10.20;3.15;;;10.10;99.90;;;;;;5009530;28;20216;-77
2021/05/19 02:30:11;;;;;;;11.23;3.38;;;9.80;99.90;;;;;;5005229;28;20568;-78
2021/05/19 02:32:37;;;;;;;3.63;2.60;;;9.80;99.90;;;;;;5009347;28;20177;-76
2021/05/19 02:35:04;;;;;;;7.32;2.65;;;9.90;99.90;;;;;;5020548;28;20169;-77
2021/05/19 02:37:29;;;;;;;5.35;2.65;;;10.00;99.90;;;;;;5020519;28;20257;-78
2021/05/19 02:39:55;;;;;;;7.80;2.97;;;10.10;99.90;;;;;;5020420;28;20185;-80
2021/05/19 02:42:21;;;;;;;12.82;3.38;;;10.20;99.90;;;;;;5020285;28;20211;-78
2021/05/19 02:44:47;;;;;;;4.00;2.88;;;10.30;99.90;;;;;;5001198;28;20281;-78
2021/05/19 02:47:13;;;;;;;14.63;2.83;;;10.30;99.90;;;;;;5002420;28;20212;-78
2021/05/19 02:49:38;;;;;;;10.18;3.35;;;10.20;99.90;;;;;;5000772;28;20142;-78
2021/05/19 02:52:04;;;;;;;4.85;3.03;;;10.20;99.90;;;;;;4998035;28;20178;-77
2021/05/19 02:54:30;;;;;;;14.80;2.60;;;10.20;99.90;;;;;;4996063;28;20633;-78
2021/05/19 02:56:55;;;;;;;14.95;2.58;;;10.30;99.90;;;;;;4995390;28;20550;-77
2021/05/19 02:59:21;;;;;;;5.93;3.10;;;10.20;99.90;;;;;;4994857;28;20235;-79
2021/05/19 03:01:47;;;;;;;12.32;3.17;;;10.20;99.90;;;;;;4995000;28;20182;-78
2021/05/19 03:04:13;;;;;;;4.57;2.60;;;10.30;99.90;;;;;;4995133;28;20180;-78
2021/05/19 03:06:38;;;;;;;5.90;3.20;;;10.20;99.90;;;;;;4994980;28;20209;-89
2021/05/19 03:09:05;;;;;;;4.63;3.17;;;10.10;99.90;;;;;;4995257;28;20188;-77
2021/05/19 03:11:31;;;;;;;7.38;3.47;;;10.10;99.90;;;;;;4995337;28;20173;-79
2021/05/19 03:13:56;;;;;;;7.00;2.47;;;10.20;99.90;;;;;;4994885;28;20176;-79
2021/05/19 03:16:22;;;;;;;6.15;2.35;;;10.30;99.90;;;;;;4994857;28;20165;-80
2021/05/19 03:18:48;;;;;;;6.28;2.35;;;10.40;99.90;;;;;;4994993;28;20280;-87
2021/05/19 03:21:14;;;;;;;6.30;3.40;;;10.40;99.90;;;;;;4994609;28;20197;-78
2021/05/19 03:23:40;;;;;;;8.98;3.05;;;10.60;99.90;;;;;;4994647;28;20182;-79
2021/05/19 03:26:05;;;;;;;6.35;3.15;;;10.50;99.90;;;;;;4994801;28;20213;-78
2021/05/19 03:28:31;;;;;;;6.95;2.80;;;10.50;99.90;;;;;;4994692;28;20201;-78
2021/05/19 03:30:57;;;;;;;8.40;2.47;;;10.60;99.90;;;;;;4994405;28;20508;-90
2021/05/19 03:33:23;;;;;;;3.80;2.35;;;10.50;99.90;;;;;;4994204;28;20523;-78
2021/05/19 03:35:49;;;;;;;6.60;3.17;;;10.40;99.90;;;;;;4994315;28;20173;-84
2021/05/19 03:38:15;;;;;;;12.30;3.30;;;10.50;99.90;;;;;;4993929;28;20657;-78
2021/05/19 03:40:41;;;;;;;8.00;2.97;;;10.60;99.90;;;;;;4993942;28;20169;-84
2021/05/19 03:43:06;;;;;;;10.85;2.88;;;10.60;99.90;;;;;;4994629;28;20169;-79
2021/05/19 03:45:32;;;;;;;4.97;3.25;;;10.60;99.90;;;;;;4993678;28;20208;-79
2021/05/19 03:47:58;;;;;;;7.35;2.33;;;10.50;99.90;;;;;;4994171;28;20193;-79
2021/05/19 03:50:27;;;;;;;9.10;3.30;;;10.50;99.90;;;;;;4994339;28;20197;-79
2021/05/19 03:52:54;;;;;;;5.97;2.70;;;10.50;99.90;;;;;;4993872;28;20165;-82
2021/05/19 03:55:20;;;;;;;9.48;3.03;;;10.60;99.90;;;;;;4993672;28;20195;-78
2021/05/19 03:57:45;;;;;;;5.57;2.83;;;10.70;99.90;;;;;;4993827;28;20579;-78
2021/05/19 04:00:15;;;;;;;15.77;3.70;;;10.60;99.90;;;;;;4994106;28;20177;-87
2021/05/19 04:02:42;;;;;;;4.22;2.95;;;10.90;99.90;;;;;;4993900;28;20227;-78
2021/05/19 04:05:08;;;;;;;12.88;2.72;;;10.80;99.90;;;;;;4993573;28;20319;-90
2021/05/19 04:07:34;;;;;;;10.55;2.83;;;10.70;99.90;;;;;;4992206;28;20197;-78
2021/05/19 04:10:00;;;;;;;11.30;3.47;;;10.80;99.90;;;;;;4993834;28;20169;-79
2021/05/19 04:12:25;;;;;;;28.88;3.38;;;10.90;99.90;;;;;;4993977;28;20169;-78
2021/05/19 04:14:51;;;;;;;9.95;2.75;;;10.70;99.90;;;;;;4992022;28;20276;-79
2021/05/19 04:17:16;;;;;;;4.78;2.08;;;10.90;99.90;;;;;;4993623;28;20168;-79
2021/05/19 04:19:42;;;;;;;7.25;2.55;;;10.80;99.90;;;;;;4993382;28;20197;-78
2021/05/19 04:22:08;;;;;;;8.25;3.13;;;11.00;99.90;;;;;;4993454;28;20180;-78
2021/05/19 04:24:34;;;;;;;11.73;4.65;;;11.10;99.90;;;;;;4993337;28;20169;-78
2021/05/19 04:26:59;;;;;;;4.43;2.60;;;10.90;99.90;;;;;;4993407;28;20181;-82
2021/05/19 04:29:25;;;;;;;12.43;3.20;;;11.10;99.90;;;;;;4993250;28;20185;-79
2021/05/19 04:31:51;;;;;;;3.50;2.25;;;11.20;99.90;;;;;;4993635;28;20618;-78
2021/05/19 04:34:18;;;;;;;8.40;2.65;;;11.20;99.90;;;;;;4993128;28;20168;-78
2021/05/19 04:36:43;;;;;;;4.45;1.90;;;11.00;99.90;;;;;;4992174;28;20622;-88
2021/05/19 04:39:09;;;;;;;7.30;1.90;;;10.90;99.90;;;;;;4993535;28;20188;-78
2021/05/19 04:41:35;;;;;;;7.18;2.63;;;11.10;99.90;;;;;;4993194;28;20173;-78
2021/05/19 04:44:00;;;;;;;6.88;2.80;;;10.90;99.90;;;;;;4992977;28;20165;-78
2021/05/19 04:46:26;;;;;;;9.15;2.58;;;11.00;99.90;;;;;;4993298;28;20240;-78
2021/05/19 04:48:54;;;;;;;7.32;2.72;;;11.20;99.90;;;;;;4993220;28;20197;-78
2021/05/19 04:51:20;;;;;;;2.13;1.85;;;11.10;99.90;;;;;;4993330;28;20213;-83
2021/05/19 04:53:45;;;;;;;7.78;3.00;;;11.30;99.90;;;;;;4993182;28;20169;-92
2021/05/19 04:56:11;;;;;;;4.32;2.20;;;11.40;99.90;;;;;;4993072;28;20208;-79
2021/05/19 04:58:37;;;;;;;8.10;2.53;;;11.30;99.90;;;;;;4992931;28;20239;-78
2021/05/19 05:01:02;;;;;;;4.38;2.25;;;11.50;99.90;;;;;;4993197;28;20648;-89
2021/05/19 05:03:28;;;;;;;6.55;2.10;;;11.70;99.90;;;;;;4993024;28;20170;-78
2021/05/19 05:05:55;;;;;;;5.65;2.25;;;11.60;99.90;;;;;;4993456;28;20212;-86
2021/05/19 05:08:21;;;;;;;6.63;2.42;;;11.50;99.90;;;;;;4991634;28;20201;-78
2021/05/19 05:10:47;;;;;;;6.30;2.20;;;11.60;99.90;;;;;;4993026;28;20223;-78
2021/05/19 05:13:13;;;;;;;7.85;2.28;;;11.60;99.90;;;;;;4993366;28;20248;-82
2021/05/19 05:15:38;;;;;;;10.63;2.80;;;11.40;99.90;;;;;;4993216;28;20180;-81
2021/05/19 05:18:04;;;;;;;12.93;2.78;;;11.70;99.90;;;;;;4996948;28;20197;-83
2021/05/19 05:20:30;;;;;;;6.60;2.05;;;12.00;99.90;;;;;;4996014;28;20184;-79
2021/05/19 05:22:55;;;;;;;7.30;2.17;;;12.10;99.90;;;;;;4996536;28;20173;-88
2021/05/19 05:25:22;;;;;;;4.15;2.30;;;12.00;99.90;;;;;;4995587;28;20212;-79
2021/05/19 05:27:48;;;;;;;7.25;2.25;;;12.00;99.90;;;;;;4995539;28;20193;-79
2021/05/19 05:30:15;;;;;;;20.95;2.53;;;12.00;99.90;;;;;;4996521;28;20192;-78
2021/05/19 05:32:41;;;;;;;4.70;2.83;;;11.80;99.90;;;;;;4996685;28;20171;-79
2021/05/19 05:35:08;;;;;;;7.35;2.30;;;11.80;99.90;;;;;;4995509;28;20165;-79
2021/05/19 05:37:34;;;;;;;4.63;2.30;;;11.70;99.90;;;;;;4995990;28;20217;-79
2021/05/19 05:40:00;;;;;;;7.03;2.35;;;11.70;99.90;;;;;;4996742;28;20208;-80
2021/05/19 05:42:26;;;;;;;7.72;2.45;;;11.70;99.90;;;;;;4996243;28;20915;-91
2021/05/19 05:44:52;;;;;;;9.68;2.08;;;11.90;99.90;;;;;;4994521;28;20295;-80
2021/05/19 05:47:18;;;;;;;10.60;2.25;;;12.00;99.90;;;;;;4996023;28;20165;-90
2021/05/19 05:49:44;;;;;;;6.03;2.33;;;11.80;99.90;;;;;;4996192;28;20541;-79
2021/05/19 05:52:10;;;;;;;10.50;2.03;;;12.20;99.90;;;;;;4996046;28;20172;-79
2021/05/19 05:54:35;;;;;;;6.55;1.63;;;12.40;99.90;;;;;;4994679;28;20165;-83
2021/05/19 05:57:01;;;;;;;7.70;2.15;;;12.50;99.90;;;;;;4995610;28;20181;-79
2021/05/19 05:59:26;;;;;;;12.30;1.75;;;12.60;99.90;;;;;;4994294;28;20227;-79
2021/05/19 06:01:52;;;;;;;7.95;2.15;;;12.60;99.90;;;;;;4995515;28;20193;-79
2021/05/19 06:04:18;;;;;;;7.43;2.25;;;12.80;99.90;;;;;;4995347;28;20688;-81
2021/05/19 06:06:43;;;;;;;7.97;2.85;;;12.70;99.90;;;;;;4994159;28;20626;-82
2021/05/19 06:09:09;;;;;;;5.15;2.25;;;12.80;99.90;;;;;;4995783;28;20320;-78
2021/05/19 06:11:35;;;;;;;6.30;2.13;;;12.80;99.90;;;;;;4995486;28;20192;-78
2021/05/19 06:14:00;;;;;;;5.53;1.70;;;13.00;99.90;;;;;;4995207;28;20165;-82
2021/05/19 06:16:26;;;;;;;4.65;1.60;;;13.10;99.90;;;;;;4995302;28;20177;-79
2021/05/19 06:18:51;;;;;;;8.73;2.20;;;13.40;99.90;;;;;;4995542;28;20196;-81
2021/05/19 06:21:17;;;;;;;10.63;2.80;;;13.50;99.90;;;;;;4995645;28;20247;-82
2021/05/19 06:23:42;;;;;;;6.38;2.58;;;13.40;99.90;;;;;;4994182;28;20177;-83
2021/05/19 06:26:08;;;;;;;7.85;1.85;;;13.50;99.90;;;;;;4995694;28;20664;-82
2021/05/19 06:28:33;;;;;;;2.42;1.35;;;13.90;99.90;;;;;;4993387;28;20189;-83
2021/05/19 06:30:59;;;;;;;6.93;1.90;;;13.80;99.90;;;;;;4995395;28;20208;-79
2021/05/19 06:33:25;;;;;;;8.27;2.22;;;13.90;99.90;;;;;;4993715;28;20691;-77
2021/05/19 06:35:50;;;;;;;7.63;1.88;;;14.30;99.90;;;;;;4995109;28;20260;-78
2021/05/19 06:38:16;;;;;;;6.75;2.42;;;14.50;99.90;;;;;;4995422;28;20611;-82
2021/05/19 06:40:42;;;;;;;17.85;2.63;;;14.60;99.90;;;;;;4995572;28;20268;-84
2021/05/19 06:43:09;;;;;;;63.97;7.03;;;14.80;99.90;;;;;;4994290;28;20653;-81
2021/05/19 06:45:35;;;;;;;26.65;3.55;;;15.00;99.90;;;;;;4997915;28;20208;-84
2021/05/19 06:48:01;;;;;;;16.88;2.20;;;14.80;99.90;;;;;;4995127;28;20540;-82
2021/05/19 06:50:27;;;;;;;6.60;1.65;;;14.70;99.90;;;;;;4995050;28;20185;-81
2021/05/19 06:52:52;;;;;;;84.35;9.40;;;14.70;99.90;;;;;;4994754;28;20169;-82
2021/05/19 06:55:19;;;;;;;16.80;2.42;;;14.70;99.90;;;;;;4994787;28;20611;-82
2021/05/19 06:57:45;;;;;;;13.50;2.50;;;14.50;99.90;;;;;;4993457;28;20189;-81
2021/05/19 07:00:11;;;;;;;8.75;1.90;;;14.30;99.90;;;;;;4994773;28;20187;-81
2021/05/19 07:02:38;;;;;;;5.78;1.75;;;14.40;99.90;;;;;;4993906;28;20169;-83
2021/05/19 07:05:06;;;;;;;16.85;2.90;;;14.20;99.90;;;;;;4994379;28;20197;-87
2021/05/19 07:07:31;;;;;;;8.60;2.35;;;14.10;99.90;;;;;;4994834;28;20236;-87
2021/05/19 07:09:57;;;;;;;12.70;2.78;;;14.40;99.90;;;;;;4994918;28;20178;-85
2021/05/19 07:12:22;;;;;;;77.72;10.45;;;14.50;99.90;;;;;;4994634;28;20244;-85
2021/05/19 07:14:54;;;;;;;23.98;3.60;;;14.40;99.90;;;;;;4994375;28;20256;-85
2021/05/19 07:17:19;;;;;;;11.52;2.30;;;14.20;99.90;;;;;;4994638;28;20172;-85
2021/05/19 07:19:45;;;;;;;17.73;2.72;;;14.00;99.90;;;;;;4993634;28;20169;-81
2021/05/19 07:22:11;;;;;;;20.73;3.65;;;13.70;99.90;;;;;;4994767;28;20359;-82
2021/05/19 07:24:37;;;;;;;68.93;7.65;;;13.70;99.90;;;;;;4995344;28;20223;-81
2021/05/19 07:27:03;;;;;;;30.38;4.22;;;13.70;99.90;;;;;;4994363;28;20170;-82
2021/05/19 07:29:29;;;;;;;123.97;11.10;;;13.60;99.90;;;;;;4994342;28;20653;-81
2021/05/19 07:31:56;;;;;;;13.45;2.33;;;13.60;99.90;;;;;;4994146;28;20161;-80
2021/05/19 07:34:22;;;;;;;102.05;10.02;;;13.50;99.90;;;;;;4993964;28;20184;-82
2021/05/19 07:36:47;;;;;;;142.32;15.68;;;13.40;99.90;;;;;;4991396;28;20174;-82
2021/05/19 07:39:13;;;;;;;49.20;7.10;;;13.50;99.90;;;;;;4991218;28;20198;-79
2021/05/19 07:41:39;;;;;;;10.35;2.25;;;13.70;99.90;;;;;;4989963;28;20196;-80
2021/05/19 07:44:05;;;;;;;8.65;2.08;;;13.80;99.90;;;;;;4977457;28;20194;-84
2021/05/19 07:46:31;;;;;;;4.85;1.90;;;13.40;99.90;;;;;;4974910;28;20272;-80
2021/05/19 07:48:57;;;;;;;12.25;2.45;;;13.60;99.90;;;;;;4983975;28;20189;-83
2021/05/19 07:51:22;;;;;;;93.45;11.07;;;13.60;99.90;;;;;;4982542;28;20627;-82
2021/05/19 07:53:48;;;;;;;6.93;2.10;;;13.90;99.90;;;;;;4984558;28;20181;-81
2021/05/19 07:56:19;;;;;;;8.65;1.60;;;14.10;99.90;;;;;;4980102;28;20660;-82
2021/05/19 07:58:58;;;;;;;10.38;2.33;;;14.00;99.90;;;;;;4990177;28;20539;-80
2021/05/19 08:03:51;;;;;;;6.80;1.83;;;14.10;99.90;;;;;;4980052;28;20184;-80
2021/05/19 08:06:17;;;;;;;7.35;2.05;;;14.10;99.90;;;;;;4984927;28;20209;-81
2021/05/19 08:08:43;;;;;;;7.85;1.42;;;14.20;99.90;;;;;;4981798;28;20288;-81
2021/05/19 08:11:09;;;;;;;5.80;1.52;;;14.10;99.90;;;;;;4991299;28;20268;-80
2021/05/19 08:13:39;;;;;;;3.90;1.85;;;14.20;99.90;;;;;;4992983;28;20172;-80
2021/05/19 08:16:05;;;;;;;4.47;1.38;;;14.30;99.90;;;;;;4976719;28;20178;-81
2021/05/19 08:18:31;;;;;;;3.55;1.48;;;14.20;99.90;;;;;;4983363;28;20264;-82
2021/05/19 08:20:57;;;;;;;5.57;1.52;;;14.10;99.90;;;;;;4992752;28;20260;-81
2021/05/19 08:23:22;;;;;;;6.18;3.20;;;14.20;99.90;;;;;;4992781;28;20172;-79
2021/05/19 08:25:48;;;;;;;9.32;4.93;;;14.40;99.90;;;;;;4989365;28;20220;-80
2021/05/19 08:28:13;;;;;;;13.80;2.20;;;14.60;99.90;;;;;;4992129;28;20196;-80
2021/05/19 08:30:39;;;;;;;24.80;2.22;;;14.70;99.90;;;;;;4993103;28;20181;-80
2021/05/19 08:33:05;;;;;;;21.50;6.05;;;14.80;99.90;;;;;;4991556;28;20197;-81
2021/05/19 08:35:31;;;;;;;11.85;2.78;;;15.10;99.90;;;;;;4992018;28;20172;-77
2021/05/19 08:37:56;;;;;;;16.13;2.28;;;15.30;99.90;;;;;;4992714;28;20247;-78
2021/05/19 08:40:22;;;;;;;10.38;2.70;;;15.60;99.90;;;;;;4992803;28;20180;-78
2021/05/19 08:42:48;;;;;;;27.58;12.90;;;15.80;99.90;;;;;;4992524;28;20169;-77
2021/05/19 08:45:15;;;;;;;10.80;2.70;;;15.80;99.90;;;;;;4991835;28;20557;-78
2021/05/19 08:47:41;;;;;;;4.82;2.95;;;16.10;99.90;;;;;;4991455;28;20189;-78
2021/05/19 08:50:09;;;;;;;19.42;6.15;;;15.90;99.90;;;;;;4992403;28;20576;-78
2021/05/19 08:52:38;;;;;;;7.75;2.53;;;16.00;99.90;;;;;;4995050;28;20165;-78
2021/05/19 08:55:12;;;;;;;3.80;1.27;;;15.70;99.90;;;;;;4997016;28;20165;-78
2021/05/19 08:57:40;;;;;;;5.20;1.10;;;15.80;99.90;;;;;;4997202;28;20230;-77
2021/05/19 09:00:08;;;;;;;11.90;1.83;;;15.80;99.90;;;;;;4997283;28;20235;-78
2021/05/19 09:02:34;;;;;;;3.22;0.95;;;15.90;99.90;;;;;;4998722;28;20172;-78
2021/05/19 09:05:00;;;;;;;38.95;6.10;;;16.10;99.90;;;;;;4997592;28;20200;-78
2021/05/19 09:07:26;;;;;;;2.85;1.20;;;16.30;99.90;;;;;;4998724;28;20173;-77
2021/05/19 09:09:52;;;;;;;15.32;1.30;;;16.00;99.90;;;;;;4999062;28;20169;-78
2021/05/19 09:12:19;;;;;;;29.42;4.70;;;15.40;99.90;;;;;;4999427;28;20169;-77
2021/05/19 09:14:51;;;;;;;16.75;3.33;;;15.30;99.90;;;;;;4999027;28;20202;-78
2021/05/19 09:17:26;;;;;;;270.45;23.83;;;15.00;99.90;;;;;;4999002;28;20173;-78
2021/05/19 09:20:01;;;;;;;27.23;3.60;;;15.40;99.90;;;;;;4998715;28;20173;-78
2021/05/19 09:22:33;;;;;;;29.67;3.65;;;15.50;99.90;;;;;;4998937;28;20648;-79
2021/05/19 09:25:01;;;;;;;12.82;1.73;;;15.40;99.90;;;;;;4998728;28;20251;-79
2021/05/19 09:27:41;;;;;;;14.15;1.83;;;15.60;99.90;;;;;;4995914;28;20197;-79
2021/05/19 09:30:08;;;;;;;42.33;3.50;;;15.80;99.90;;;;;;4977907;28;20185;-79
2021/05/19 09:32:39;;;;;;;6.90;2.25;;;15.90;99.90;;;;;;4979695;28;20170;-79
2021/05/19 09:35:07;;;;;;;4.43;1.80;;;16.20;99.90;;;;;;4978532;28;20174;-78
2021/05/19 09:37:34;;;;;;;7.28;1.33;;;16.00;99.90;;;;;;4977884;28;20189;-78
2021/05/19 09:40:10;;;;;;;4.90;1.48;;;15.80;99.90;;;;;;4979772;28;20351;-79
2021/05/19 09:42:36;;;;;;;3.78;1.40;;;15.50;99.90;;;;;;4979418;28;20791;-80
2021/05/19 09:45:22;;;;;;;4.50;1.48;;;15.60;99.90;;;;;;4979098;28;20205;-80
2021/05/19 09:47:48;;;;;;;10.35;2.13;;;15.80;99.90;;;;;;4990009;28;20195;-79
2021/05/19 09:50:19;;;;;;;46.80;5.75;;;15.80;99.90;;;;;;4998706;28;20165;-79
2021/05/19 09:53:14;;;;;;;16.92;2.05;;;16.00;99.90;;;;;;4999618;28;20177;-79
2021/05/19 09:55:59;;;;;;;24.52;2.22;;;15.80;99.90;;;;;;5000484;28;20263;-81
2021/05/19 09:58:45;;;;;;;106.43;10.77;;;15.80;99.90;;;;;;4999836;28;20196;-80
2021/05/19 10:01:11;;;;;;;15.88;4.82;;;15.90;99.90;;;;;;5002576;28;20181;-79
2021/05/19 10:03:37;;;;;;;5.65;3.03;;;15.90;99.90;;;;;;5009019;28;20196;-79
2021/05/19 10:08:39;;;;;;;5.88;2.20;;;16.30;99.90;;;;;;5017450;28;20223;-79
2021/05/19 10:11:05;;;;;;;6.03;2.30;;;16.30;99.90;;;;;;4999050;28;20186;-79
2021/05/19 10:13:33;;;;;;;4.25;2.75;;;15.90;99.90;;;;;;4985230;28;20184;-78
2021/05/19 10:16:03;;;;;;;3.70;2.05;;;16.20;99.90;;;;;;4977412;28;20589;-80
2021/05/19 10:18:32;;;;;;;2.15;1.90;;;16.10;99.90;;;;;;4975478;28;20201;-81
2021/05/19 10:21:00;;;;;;;2.13;1.90;;;16.40;99.90;;;;;;4981852;28;20244;-81
2021/05/19 10:23:35;;;;;;;3.58;2.22;;;16.40;99.90;;;;;;5004850;28;20681;-82
2021/05/19 10:26:09;;;;;;;2.58;1.77;;;16.90;99.90;;;;;;5003051;28;20211;-81
2021/05/19 10:28:41;;;;;;;2.45;2.03;;;17.00;99.90;;;;;;4998862;28;20200;-81
2021/05/19 10:31:25;;;;;;;6.68;2.08;;;17.10;99.90;;;;;;4997821;28;20177;-80
2021/05/19 10:33:52;;;;;;;8.07;3.65;;;16.80;99.90;;;;;;4991685;28;20173;-81
2021/05/19 10:36:23;;;;;;;6.97;3.00;;;16.80;99.90;;;;;;5001985;28;20213;-80
2021/05/19 10:39:12;;;;;;;4.25;2.70;;;16.90;99.90;;;;;;5006010;28;20190;-80
2021/05/19 10:41:44;;;;;;;4.50;2.00;;;17.20;99.90;;;;;;4997309;28;20185;-79
2021/05/19 10:44:11;;;;;;;5.80;1.73;;;17.10;99.90;;;;;;4997833;28;20524;-79
2021/05/19 10:46:52;;;;;;;2.95;1.55;;;17.20;99.90;;;;;;4976800;28;20248;-79
2021/05/19 10:49:19;;;;;;;1.27;1.10;;;16.80;99.90;;;;;;4991344;28;20186;-80
2021/05/19 10:52:05;;;;;;;2.03;1.35;;;17.10;99.90;;;;;;4986189;28;20231;-80
2021/05/19 10:58:02;;;;;;;2.45;1.00;;;17.60;99.90;;;;;;4994777;28;20208;-79
2021/05/19 11:00:31;;;;;;;1.70;1.23;;;17.40;99.90;;;;;;4994657;28;20553;-80
2021/05/19 11:03:01;;;;;;;6.65;1.23;;;17.30;99.90;;;;;;4992095;28;20252;-80
2021/05/19 11:05:34;;;;;;;8.93;1.48;;;17.20;99.90;;;;;;4995714;28;20217;-83
2021/05/19 11:08:06;;;;;;;1.30;1.20;;;17.00;99.90;;;;;;4993802;28;20197;-88
2021/05/19 11:10:46;;;;;;;17.40;3.08;;;17.00;99.90;;;;;;4993760;28;20180;-80
2021/05/19 11:13:11;;;;;;;8.88;1.73;;;17.30;99.90;;;;;;4992656;28;20544;-79
2021/05/19 11:20:50;;;;;;;8.30;1.77;;;17.30;99.90;;;;;;4993534;28;20656;-79
2021/05/19 11:23:17;;;;;;;9.13;1.58;;;17.30;99.90;;;;;;4993357;28;20169;-79
2021/05/19 11:25:44;;;;;;;36.25;5.05;;;17.70;99.90;;;;;;4993289;28;20636;-78
2021/05/19 11:28:10;;;;;;;21.00;3.35;;;17.80;99.90;;;;;;4993084;28;20224;-79
2021/05/19 11:30:36;;;;;;;26.33;3.15;;;18.10;99.90;;;;;;4993692;28;20245;-80
2021/05/19 11:33:08;;;;;;;22.30;2.63;;;18.00;99.90;;;;;;4993415;28;20200;-79
2021/05/19 11:35:34;;;;;;;10.38;2.03;;;18.00;99.90;;;;;;4994566;28;20172;-83
2021/05/19 11:38:08;;;;;;;5.15;1.83;;;18.10;99.90;;;;;;4994189;28;20203;-79
2021/05/19 11:40:42;;;;;;;36.25;3.80;;;18.10;99.90;;;;;;4994375;28;20174;-79
2021/05/19 11:43:09;;;;;;;45.10;5.57;;;18.00;99.90;;;;;;4993879;28;20619;-79
2021/05/19 11:45:35;;;;;;;11.90;2.85;;;18.30;99.90;;;;;;4994246;28;20665;-79
2021/05/19 11:48:01;;;;;;;19.88;2.95;;;18.40;99.90;;;;;;4993796;28;20181;-79
2021/05/19 11:50:32;;;;;;;7.75;2.08;;;18.60;99.90;;;;;;4993749;28;20231;-80
2021/05/19 11:53:02;;;;;;;17.50;3.30;;;18.40;99.90;;;;;;4993778;28;20169;-79
2021/05/19 11:55:45;;;;;;;147.25;15.20;;;18.30;99.90;;;;;;4993620;28;20565;-79
2021/05/19 11:58:25;;;;;;;33.05;4.00;;;18.50;99.90;;;;;;4993206;28;20192;-79
2021/05/19 12:00:57;;;;;;;8.77;2.30;;;18.30;99.90;;;;;;4993793;28;20288;-79
2021/05/19 12:03:25;;;;;;;10.23;1.90;;;17.90;99.90;;;;;;4992441;28;20181;-79
2021/05/19 12:05:53;;;;;;;26.40;2.67;;;18.00;99.90;;;;;;4992976;28;20252;-79
2021/05/19 12:08:36;;;;;;;2.60;2.00;;;18.00;99.90;;;;;;4993797;28;20189;-79
2021/05/19 12:11:08;;;;;;;4.20;1.67;;;18.20;99.90;;;;;;4993792;28;20260;-78
2021/05/19 12:13:37;;;;;;;2.63;1.40;;;18.40;99.90;;;;;;4992414;28;20168;-80
2021/05/19 12:16:05;;;;;;;4.55;2.17;;;18.50;99.90;;;;;;4993574;28;20165;-78
2021/05/19 12:18:31;;;;;;;3.33;1.88;;;18.60;99.90;;;;;;4992912;28;20189;-79
2021/05/19 12:20:56;;;;;;;1.92;1.50;;;18.90;99.90;;;;;;4992874;28;20184;-79
2021/05/19 12:23:22;;;;;;;8.07;1.55;;;19.10;99.90;;;;;;4991591;28;20173;-79
2021/05/19 12:25:48;;;;;;;2.65;1.88;;;19.60;99.90;;;;;;4992167;28;20296;-79
2021/05/19 12:28:24;;;;;;;6.45;1.65;;;19.60;99.90;;;;;;4992933;28;20191;-79
2021/05/19 12:30:58;;;;;;;3.08;1.75;;;19.20;99.90;;;;;;4993014;28;20625;-79
2021/05/19 12:33:26;;;;;;;4.10;1.67;;;19.10;99.90;;;;;;4992944;28;20165;-78
2021/05/19 12:35:53;;;;;;;2.38;1.60;;;19.10;99.90;;;;;;4991545;28;20181;-79
2021/05/19 12:38:24;;;;;;;4.78;1.50;;;19.10;99.90;;;;;;4993128;28;20259;-79
2021/05/19 12:40:50;;;;;;;1.67;1.58;;;19.50;99.90;;;;;;4993057;28;20165;-79
2021/05/19 12:43:27;;;;;;;2.22;1.63;;;19.70;99.90;;;;;;4992654;28;20175;-79
2021/05/19 12:45:55;;;;;;;1.42;1.33;;;19.20;99.90;;;;;;4993022;28;20251;-79
2021/05/19 12:48:23;;;;;;;1.95;1.40;;;19.30;99.90;;;;;;4992671;28;20272;-79
2021/05/19 12:51:01;;;;;;;4.38;1.38;;;19.50;99.90;;;;;;4993141;28;20193;-79
2021/05/19 12:53:51;;;;;;;59.58;7.03;;;19.70;99.90;;;;;;4992808;28;20173;-79
2021/05/19 12:56:25;;;;;;;25.65;2.05;;;20.10;99.90;;;;;;4992890;28;20338;-79
2021/05/19 12:59:01;;;;;;;17.65;3.40;;;20.20;99.90;;;;;;4992699;28;20676;-79
2021/05/19 13:01:29;;;;;;;12.38;2.05;;;20.60;99.90;;;;;;4991516;28;20328;-82
2021/05/19 13:03:55;;;;;;;5.88;1.20;;;20.30;99.90;;;;;;4991574;28;20501;-78